createdAt,value
2023-04-15T03:03:06.244Z,58.72
2023-04-15T03:05:35.541Z,58.75
2023-04-15T03:08:05.609Z,58.83
2023-04-15T03:10:34.763Z,58.73
2023-04-15T03:13:04.102Z,58.78
2023-04-15T03:15:34.023Z,58.80
2023-04-15T03:18:03.254Z,58.81
2023-04-15T03:20:32.827Z,58.76
2023-04-15T03:23:01.228Z,58.84
2023-04-15T03:25:31.300Z,58.79
2023-04-15T03:28:02.052Z,58.83
2023-04-15T03:30:31.177Z,58.94
2023-04-15T03:32:59.939Z,58.87
2023-04-15T03:35:29.556Z,58.84
2023-04-15T03:37:57.878Z,58.89
2023-04-15T03:40:26.957Z,58.91
2023-04-15T03:42:55.155Z,59.01
2023-04-15T03:45:24.096Z,59.03
2023-04-15T03:47:52.915Z,58.97
2023-04-15T03:50:22.521Z,58.93
2023-04-15T03:52:51.974Z,58.94
2023-04-15T03:55:21.369Z,58.92
2023-04-15T03:57:50.806Z,58.91
2023-04-15T04:00:20.398Z,59.04
2023-04-15T04:02:49.381Z,59.13
2023-04-15T04:05:18.704Z,59.20
2023-04-15T04:07:48.590Z,59.30
2023-04-15T04:10:17.639Z,59.26
2023-04-15T04:12:46.526Z,59.19
2023-04-15T04:15:15.794Z,59.18
2023-04-15T04:17:45.019Z,59.48
2023-04-15T04:20:14.098Z,59.40
2023-04-15T04:22:42.927Z,59.48
2023-04-15T04:25:11.790Z,59.56
2023-04-15T04:27:41.263Z,59.42
2023-04-15T04:30:10.304Z,59.42
2023-04-15T04:32:39.531Z,59.83
2023-04-15T04:35:08.990Z,59.76
2023-04-15T04:37:40.674Z,59.81
2023-04-15T04:40:11.174Z,59.80
2023-04-15T04:42:40.307Z,60.03
2023-04-15T04:45:10.296Z,60.15
2023-04-15T04:47:38.910Z,60.26
2023-04-15T04:50:08.537Z,60.25
2023-04-15T04:52:37.666Z,60.44
2023-04-15T04:55:07.188Z,60.60
2023-04-15T04:57:36.677Z,60.48
2023-04-15T05:00:06.097Z,60.49
2023-04-15T05:02:37.006Z,60.60
2023-04-15T05:05:07.423Z,60.65
2023-04-15T05:07:35.640Z,60.66
2023-04-15T05:10:04.450Z,60.76
2023-04-15T05:12:33.417Z,60.78
2023-04-15T05:15:01.857Z,60.89
2023-04-15T05:17:34.445Z,60.93
2023-04-15T05:20:04.298Z,61.02
2023-04-15T05:22:33.151Z,61.13
2023-04-15T05:25:01.950Z,61.24
2023-04-15T05:27:31.547Z,61.36
2023-04-15T05:30:00.491Z,61.31
2023-04-15T05:32:32.285Z,61.21
2023-04-15T05:35:01.777Z,61.20
2023-04-15T05:37:30.851Z,61.32
2023-04-15T05:39:59.954Z,61.52
2023-04-15T05:42:28.768Z,61.44
2023-04-15T05:44:57.686Z,61.55
2023-04-15T05:47:26.561Z,61.62
2023-04-15T05:49:56.024Z,61.67
2023-04-15T05:52:24.982Z,61.74
2023-04-15T05:54:53.873Z,61.70
2023-04-15T05:57:22.943Z,61.86
2023-04-15T05:59:56.560Z,62.01
2023-04-15T06:02:26.039Z,61.90
2023-04-15T06:04:55.160Z,61.99
2023-04-15T06:07:25.005Z,61.94
2023-04-15T06:09:53.834Z,61.96
2023-04-15T06:12:22.771Z,61.95
2023-04-15T06:14:52.104Z,62.12
2023-04-15T06:17:21.348Z,62.31
2023-04-15T06:19:52.272Z,62.39
2023-04-15T06:22:21.551Z,62.24
2023-04-15T06:24:53.622Z,62.20
2023-04-15T06:27:23.887Z,62.37
2023-04-15T06:29:52.956Z,62.21
2023-04-15T06:32:22.291Z,62.46
2023-04-15T06:34:51.525Z,62.47
2023-04-15T06:37:20.627Z,62.44
2023-04-15T06:39:49.489Z,62.60
2023-04-15T06:42:18.144Z,62.65
2023-04-15T06:44:47.167Z,62.61
2023-04-15T06:47:16.111Z,62.57
2023-04-15T06:49:45.204Z,62.64
2023-04-15T06:52:14.097Z,62.71
2023-04-15T06:54:43.510Z,62.71
2023-04-15T06:57:12.178Z,62.71
2023-04-15T06:59:40.889Z,62.79
2023-04-15T07:02:12.813Z,62.84
2023-04-15T07:04:42.148Z,62.87
2023-04-15T07:07:10.256Z,62.86
2023-04-15T07:09:39.059Z,62.95
2023-04-15T07:12:07.664Z,63.02
2023-04-15T07:14:37.212Z,63.02
2023-04-15T07:17:06.318Z,62.97
2023-04-15T07:19:35.354Z,63.12
2023-04-15T07:22:04.112Z,63.19
2023-04-15T07:24:32.814Z,63.34
2023-04-15T07:27:02.670Z,63.41
2023-04-15T07:29:32.065Z,63.43
2023-04-15T07:32:00.769Z,63.47
2023-04-15T07:34:31.410Z,63.33
2023-04-15T07:37:02.000Z,63.33
2023-04-15T07:39:31.196Z,63.29
2023-04-15T07:41:59.547Z,63.43
2023-04-15T07:44:28.083Z,63.35
2023-04-15T07:46:57.326Z,63.41
2023-04-15T07:49:25.930Z,63.48
2023-04-15T07:51:55.377Z,63.44
2023-04-15T07:54:23.797Z,63.45
2023-04-15T07:56:52.532Z,63.36
2023-04-15T07:59:21.814Z,63.41
2023-04-15T08:01:53.338Z,63.37
2023-04-15T08:04:22.431Z,63.51
2023-04-15T08:06:50.780Z,63.39
2023-04-15T08:09:20.276Z,63.42
2023-04-15T08:11:52.087Z,63.42
2023-04-15T08:14:21.202Z,63.60
2023-04-15T08:16:49.796Z,63.68
2023-04-15T08:19:18.560Z,63.39
2023-04-15T08:21:47.421Z,63.64
2023-04-15T08:24:16.313Z,63.49
2023-04-15T08:26:46.025Z,63.36
2023-04-15T08:29:14.267Z,63.36
2023-04-15T08:31:42.456Z,63.40
2023-04-15T08:34:12.811Z,63.32
2023-04-15T08:36:41.982Z,63.33
2023-04-15T08:39:10.391Z,63.09
2023-04-15T08:42:02.371Z,62.93
2023-04-15T08:44:34.163Z,63.20
2023-04-15T08:47:03.825Z,63.36
2023-04-15T08:49:33.677Z,63.19
2023-04-15T08:52:02.927Z,62.95
2023-04-15T08:54:32.917Z,63.10
2023-04-15T08:57:03.437Z,63.11
2023-04-15T08:59:32.563Z,63.17
2023-04-15T09:02:01.910Z,63.07
2023-04-15T09:04:32.105Z,62.80
2023-04-15T09:07:01.444Z,62.87
2023-04-15T09:09:29.811Z,63.18
2023-04-15T09:11:58.973Z,63.18
2023-04-15T09:14:32.775Z,63.33
2023-04-15T09:17:05.535Z,63.22
2023-04-15T09:19:35.419Z,63.22
2023-04-15T09:22:04.910Z,63.34
2023-04-15T09:24:38.941Z,63.24
2023-04-15T09:27:08.198Z,63.33
2023-04-15T09:29:37.828Z,63.16
2023-04-15T09:32:14.787Z,63.33
2023-04-15T09:34:43.529Z,63.29
2023-04-15T09:37:28.556Z,63.51
2023-04-15T09:40:00.061Z,63.54
2023-04-15T09:42:29.408Z,63.31
2023-04-15T09:45:08.471Z,63.41
2023-04-15T09:47:37.493Z,63.42
2023-04-15T09:50:06.590Z,63.64
2023-04-15T09:52:41.647Z,63.48
2023-04-15T09:55:11.202Z,63.50
2023-04-15T09:57:42.113Z,63.51
2023-04-15T10:00:11.871Z,63.50
2023-04-15T10:02:41.760Z,63.43
2023-04-15T10:05:16.113Z,63.47
2023-04-15T10:07:46.320Z,63.46
2023-04-15T10:10:15.563Z,63.51
2023-04-15T10:12:44.940Z,63.47
2023-04-15T10:15:18.421Z,63.55
2023-04-15T10:17:48.829Z,63.38
2023-04-15T10:20:18.903Z,63.31
2023-04-15T10:22:47.751Z,63.48
2023-04-15T10:25:17.244Z,63.54
2023-04-15T10:27:49.188Z,63.50
2023-04-15T10:30:19.655Z,63.38
2023-04-15T10:32:49.357Z,63.50
2023-04-15T10:35:19.713Z,63.53
2023-04-15T10:37:48.834Z,63.63
2023-04-15T10:40:34.137Z,63.68
2023-04-15T10:43:03.300Z,63.63
2023-04-15T10:45:37.393Z,63.52
2023-04-15T10:48:08.274Z,63.70
2023-04-15T10:50:38.696Z,63.73
2023-04-15T10:53:10.867Z,63.71
2023-04-15T10:55:39.818Z,63.78
2023-04-15T10:58:10.457Z,63.81
2023-04-15T11:00:40.580Z,63.67
2023-04-15T11:03:10.538Z,63.75
2023-04-15T11:05:43.057Z,63.78
2023-04-15T11:08:12.567Z,63.94
2023-04-15T11:10:41.677Z,63.79
2023-04-15T11:13:11.157Z,64.03
2023-04-15T11:15:45.879Z,64.03
2023-04-15T11:18:22.669Z,63.93
2023-04-15T11:20:52.667Z,64.01
2023-04-15T11:23:28.631Z,64.09
2023-04-15T11:26:01.443Z,64.32
2023-04-15T11:28:31.911Z,64.43
2023-04-15T11:31:06.885Z,64.37
2023-04-15T11:33:35.964Z,64.31
2023-04-15T11:36:05.024Z,64.16
2023-04-15T11:38:35.092Z,64.12
2023-04-15T11:41:03.971Z,64.45
2023-04-15T11:43:35.905Z,64.39
2023-04-15T11:46:05.439Z,64.47
2023-04-15T11:48:36.578Z,64.43
2023-04-15T11:51:06.627Z,64.38
2023-04-15T11:53:44.409Z,64.51
2023-04-15T11:56:20.738Z,64.50
2023-04-15T11:58:51.308Z,64.60
2023-04-15T12:01:20.619Z,64.72
2023-04-15T12:03:50.656Z,64.59
2023-04-15T12:06:21.360Z,64.52
2023-04-15T12:08:50.620Z,64.64
2023-04-15T12:11:20.315Z,64.72
2023-04-15T12:13:49.938Z,64.65
2023-04-15T12:16:22.307Z,64.67
2023-04-15T12:18:52.566Z,64.66
2023-04-15T12:21:21.819Z,64.88
2023-04-15T12:23:54.704Z,64.76
2023-04-15T12:26:28.174Z,64.63
2023-04-15T12:29:01.472Z,64.69
2023-04-15T12:31:30.919Z,64.76
2023-04-15T12:34:01.547Z,64.82
2023-04-15T12:36:36.760Z,64.83
2023-04-15T12:39:06.811Z,64.70
2023-04-15T12:41:35.963Z,64.75
2023-04-15T12:44:04.724Z,64.69
2023-04-15T12:46:34.077Z,64.73
2023-04-15T12:49:03.362Z,64.89
2023-04-15T12:51:32.276Z,64.92
2023-04-15T12:54:01.432Z,64.87
2023-04-15T12:56:30.440Z,64.97
2023-04-15T12:58:59.218Z,64.96
2023-04-15T13:01:28.073Z,64.94
2023-04-15T13:03:57.165Z,65.11
2023-04-15T13:06:26.558Z,65.06
2023-04-15T13:08:58.795Z,65.16
2023-04-15T13:11:31.064Z,64.84
2023-04-15T13:14:01.323Z,64.92
2023-04-15T13:16:29.914Z,65.11
2023-04-15T13:18:59.755Z,65.00
2023-04-15T13:21:33.101Z,64.91
2023-04-15T13:24:02.281Z,65.05
2023-04-15T13:26:32.282Z,65.10
2023-04-15T13:29:02.589Z,64.86
2023-04-15T13:31:31.718Z,65.04
2023-04-15T13:34:00.819Z,65.14
2023-04-15T13:36:29.031Z,65.11
2023-04-15T13:38:57.986Z,65.24
2023-04-15T13:41:27.144Z,64.99
2023-04-15T13:43:56.186Z,65.10
2023-04-15T13:46:26.850Z,65.04
2023-04-15T13:48:55.843Z,65.08
2023-04-15T13:51:24.768Z,65.13
2023-04-15T13:53:53.166Z,65.05
2023-04-15T13:56:22.327Z,65.21
2023-04-15T13:58:51.210Z,65.33
2023-04-15T14:01:19.570Z,65.40
2023-04-15T14:03:48.434Z,65.51
2023-04-15T14:06:17.788Z,65.57
2023-04-15T14:08:46.571Z,65.56
2023-04-15T14:11:15.724Z,65.45
2023-04-15T14:13:44.323Z,65.44
2023-04-15T14:16:13.841Z,65.54
2023-04-15T14:18:44.089Z,65.51
2023-04-15T14:21:12.548Z,65.54
2023-04-15T14:23:41.444Z,65.50
2023-04-15T14:26:10.453Z,65.78
2023-04-15T14:28:39.532Z,65.62
2023-04-15T14:31:08.272Z,65.65
2023-04-15T14:33:37.288Z,65.53
2023-04-15T14:36:05.665Z,65.46
2023-04-15T14:38:39.067Z,65.62
2023-04-15T14:41:11.251Z,65.74
2023-04-15T14:43:40.378Z,65.68
2023-04-15T14:46:09.759Z,65.82
2023-04-15T14:48:38.717Z,65.83
2023-04-15T14:51:07.413Z,65.74
2023-04-15T14:53:36.252Z,65.86
2023-04-15T14:56:04.631Z,65.75
2023-04-15T14:58:33.581Z,65.75
2023-04-15T15:01:03.494Z,65.67
2023-04-15T15:03:32.388Z,65.75
2023-04-15T15:06:01.804Z,65.70
2023-04-15T15:08:30.884Z,65.75
2023-04-15T15:10:59.856Z,65.70
2023-04-15T15:13:28.873Z,65.76
2023-04-15T15:15:58.038Z,65.66
2023-04-15T15:18:26.370Z,65.77
2023-04-15T15:20:55.427Z,65.77
2023-04-15T15:23:24.114Z,65.78
2023-04-15T15:25:52.585Z,65.82
2023-04-15T15:28:22.084Z,65.77
2023-04-15T15:30:50.528Z,65.80
2023-04-15T15:33:18.844Z,65.98
2023-04-15T15:35:47.408Z,65.83
2023-04-15T15:38:15.961Z,65.93
2023-04-15T15:40:44.760Z,65.92
2023-04-15T15:43:13.229Z,65.94
2023-04-15T15:45:41.659Z,65.91
2023-04-15T15:48:10.156Z,66.04
2023-04-15T15:50:39.260Z,66.01
2023-04-15T15:53:07.836Z,65.96
2023-04-15T15:55:36.884Z,65.87
2023-04-15T15:58:05.227Z,65.87
2023-04-15T16:00:33.366Z,65.84
2023-04-15T16:03:07.110Z,65.98
2023-04-15T16:05:36.053Z,65.99
2023-04-15T16:08:04.284Z,66.03
2023-04-15T16:10:32.512Z,66.01
2023-04-15T16:13:00.822Z,66.12
2023-04-15T16:15:29.012Z,66.17
2023-04-15T16:17:57.128Z,66.24
2023-04-15T16:20:25.400Z,66.24
2023-04-15T16:22:53.502Z,66.30
2023-04-15T16:25:21.661Z,66.32
2023-04-15T16:27:58.974Z,66.37
2023-04-15T16:30:31.694Z,66.42
2023-04-15T16:32:59.829Z,66.37
2023-04-15T16:35:28.532Z,66.42
2023-04-15T16:37:56.646Z,66.50
2023-04-15T16:40:25.060Z,66.61
2023-04-15T16:42:53.184Z,66.44
2023-04-15T16:45:21.752Z,66.54
2023-04-15T16:47:50.073Z,66.51
2023-04-15T16:50:18.359Z,66.53
2023-04-15T16:52:46.688Z,66.63
2023-04-15T16:55:15.140Z,66.63
2023-04-15T16:58:01.441Z,66.54
2023-04-15T17:00:32.163Z,66.65
2023-04-15T17:03:00.979Z,66.64
2023-04-15T17:05:33.285Z,66.68
2023-04-15T17:08:02.752Z,66.76
2023-04-15T17:10:31.229Z,66.74
2023-04-15T17:13:00.303Z,66.85
2023-04-15T17:15:28.586Z,66.85
2023-04-15T17:17:57.122Z,66.73
2023-04-15T17:20:26.752Z,66.81
2023-04-15T17:22:55.240Z,66.86
2023-04-15T17:25:23.543Z,66.79
2023-04-15T17:27:52.078Z,66.97
2023-04-15T17:30:21.364Z,67.08
2023-04-15T17:32:51.562Z,67.05
2023-04-15T17:35:20.448Z,67.05
2023-04-15T17:37:49.385Z,66.86
2023-04-15T17:40:17.950Z,66.99
2023-04-15T17:42:46.648Z,67.00
2023-04-15T17:45:15.150Z,67.11
2023-04-15T17:47:43.689Z,67.20
2023-04-15T17:50:12.518Z,67.16
2023-04-15T17:52:40.598Z,67.01
2023-04-15T17:55:08.997Z,67.14
2023-04-15T17:57:37.220Z,67.20
2023-04-15T18:00:06.364Z,67.05
2023-04-15T18:02:41.476Z,67.11
2023-04-15T18:05:10.823Z,67.21
2023-04-15T18:07:39.678Z,67.09
2023-04-15T18:10:08.729Z,67.17
2023-04-15T18:12:37.085Z,67.16
2023-04-15T18:15:05.971Z,67.11
2023-04-15T18:17:34.281Z,67.15
2023-04-15T18:20:03.032Z,67.23
2023-04-15T18:22:31.793Z,67.23
2023-04-15T18:25:06.002Z,67.14
2023-04-15T18:27:39.810Z,67.23
2023-04-15T18:30:09.428Z,67.27
2023-04-15T18:32:38.402Z,67.32
2023-04-15T18:35:07.188Z,67.18
2023-04-15T18:37:35.683Z,67.24
2023-04-15T18:40:04.106Z,67.31
2023-04-15T18:42:32.556Z,67.38
2023-04-15T18:45:01.027Z,67.35
2023-04-15T18:47:30.004Z,67.63
2023-04-15T18:49:58.646Z,67.44
2023-04-15T18:52:27.243Z,67.53
2023-04-15T18:54:56.056Z,67.42
2023-04-15T18:57:31.060Z,67.48
2023-04-15T19:00:05.292Z,67.53
2023-04-15T19:02:34.222Z,67.42
2023-04-15T19:05:04.603Z,67.50
2023-04-15T19:07:33.663Z,67.50
2023-04-15T19:10:03.430Z,67.58
2023-04-15T19:12:32.080Z,67.44
2023-04-15T19:15:00.934Z,67.59
2023-04-15T19:17:29.443Z,67.46
2023-04-15T19:19:57.656Z,67.41
2023-04-15T19:22:26.982Z,67.45
2023-04-15T19:24:55.344Z,67.50
2023-04-15T19:27:23.727Z,67.69
2023-04-15T19:29:52.320Z,67.56
2023-04-15T19:32:21.379Z,67.61
2023-04-15T19:34:49.925Z,67.54
2023-04-15T19:37:18.171Z,67.59
2023-04-15T19:39:46.727Z,67.72
2023-04-15T19:42:15.342Z,67.82
2023-04-15T19:44:43.693Z,67.71
2023-04-15T19:47:12.037Z,67.79
2023-04-15T19:49:40.692Z,67.92
2023-04-15T19:52:09.739Z,67.51
2023-04-15T19:54:38.314Z,67.78
2023-04-15T19:57:06.646Z,67.72
2023-04-15T19:59:35.942Z,67.89
2023-04-15T20:02:05.486Z,67.86
2023-04-15T20:04:34.794Z,67.67
2023-04-15T20:07:04.033Z,67.75
2023-04-15T20:09:32.984Z,67.81
2023-04-15T20:12:48.238Z,67.75
2023-04-15T20:14:51.565Z,67.63
2023-04-15T20:17:20.066Z,67.83
2023-04-15T20:19:48.270Z,67.78
2023-04-15T20:22:16.993Z,67.84
2023-04-15T20:24:46.386Z,67.67
2023-04-15T20:27:16.085Z,67.76
2023-04-15T20:29:44.899Z,67.68
2023-04-15T20:32:13.467Z,67.84
2023-04-15T20:34:42.318Z,67.76
2023-04-15T20:37:13.344Z,67.89
2023-04-15T20:39:42.431Z,67.94
2023-04-15T20:42:12.013Z,68.14
2023-04-15T20:44:41.230Z,68.08
2023-04-15T20:47:09.581Z,67.85
2023-04-15T20:49:39.482Z,68.03
2023-04-15T20:52:09.905Z,68.07
2023-04-15T20:54:38.219Z,68.00
2023-04-15T20:57:06.875Z,67.98
2023-04-15T20:59:36.593Z,68.05
2023-04-15T21:02:05.000Z,68.09
2023-04-15T21:04:33.416Z,67.95
2023-04-15T21:07:01.945Z,68.07
2023-04-15T21:09:30.659Z,68.11
2023-04-15T21:12:01.670Z,68.09
2023-04-15T21:14:32.702Z,67.93
2023-04-15T21:17:10.196Z,68.04
2023-04-15T21:19:40.684Z,67.98
2023-04-15T21:22:10.031Z,67.95
2023-04-15T21:24:38.763Z,67.86
2023-04-15T21:27:07.676Z,67.90
2023-04-15T21:29:35.880Z,67.86
2023-04-15T21:32:04.223Z,67.96
2023-04-15T21:34:32.696Z,67.80
2023-04-15T21:37:01.934Z,67.99
2023-04-15T21:39:30.606Z,67.86
2023-04-15T21:41:59.917Z,67.70
2023-04-15T21:44:28.287Z,67.93
2023-04-15T21:46:59.513Z,68.07
2023-04-15T21:49:28.041Z,68.08
2023-04-15T21:52:01.387Z,67.84
2023-04-15T21:54:32.024Z,67.97
2023-04-15T21:57:00.834Z,67.85
2023-04-15T21:59:29.388Z,67.90
2023-04-15T22:01:58.812Z,68.00
2023-04-15T22:04:27.411Z,68.06
2023-04-15T22:07:00.340Z,67.90
2023-04-15T22:09:29.754Z,67.92
2023-04-15T22:12:00.399Z,67.91
2023-04-15T22:14:30.838Z,67.99
2023-04-15T22:16:59.599Z,67.79
2023-04-15T22:19:29.068Z,68.05
2023-04-15T22:21:59.405Z,67.98
2023-04-15T22:24:35.051Z,68.02
2023-04-15T22:27:09.684Z,68.18
2023-04-15T22:29:38.810Z,68.12
2023-04-15T22:32:07.963Z,68.16
2023-04-15T22:34:38.102Z,68.01
2023-04-15T22:37:06.570Z,67.92
2023-04-15T22:39:35.854Z,67.82
2023-04-15T22:42:05.071Z,68.04
2023-04-15T22:44:33.656Z,67.82
2023-04-15T22:47:02.997Z,68.00
2023-04-15T22:49:31.608Z,68.06
2023-04-15T22:52:00.052Z,68.00
2023-04-15T22:54:28.502Z,67.81
2023-04-15T22:56:57.524Z,67.93
2023-04-15T22:59:26.098Z,67.88
2023-04-15T23:01:55.360Z,67.90
2023-04-15T23:04:26.225Z,67.73
2023-04-15T23:06:57.116Z,67.97
2023-04-15T23:09:26.806Z,68.12
2023-04-15T23:11:57.421Z,67.97
2023-04-15T23:14:28.340Z,67.93
2023-04-15T23:16:57.694Z,68.10
2023-04-15T23:19:26.787Z,68.08
2023-04-15T23:21:55.919Z,68.01
2023-04-15T23:24:25.796Z,67.80
2023-04-15T23:26:55.726Z,67.84
2023-04-15T23:29:25.500Z,67.72
2023-04-15T23:31:54.893Z,68.12
2023-04-15T23:34:23.712Z,67.98
2023-04-15T23:36:53.002Z,68.00
2023-04-15T23:39:21.226Z,68.04
2023-04-15T23:41:50.041Z,68.11
2023-04-15T23:44:19.155Z,68.02
2023-04-15T23:46:48.272Z,68.03
2023-04-15T23:49:18.978Z,68.13
2023-04-15T23:51:49.966Z,68.15
2023-04-15T23:54:18.860Z,68.01
2023-04-15T23:56:48.724Z,67.90
2023-04-15T23:59:18.180Z,68.06
